createdAt,value
2022-11-11T00:02:39.241Z,101719.81
2022-11-11T00:06:03.931Z,101725.09
2022-11-11T00:09:23.945Z,101727.09
2022-11-11T00:12:44.335Z,101739.78
2022-11-11T00:16:09.258Z,101730.66
2022-11-11T00:19:48.244Z,101741.50
2022-11-11T00:23:39.164Z,101742.41
2022-11-11T00:26:59.364Z,101744.38
2022-11-11T00:30:19.585Z,101745.22
2022-11-11T00:33:40.203Z,101748.78
2022-11-11T00:37:00.203Z,101750.66
2022-11-11T00:40:20.120Z,101741.50
2022-11-11T00:43:40.827Z,101747.94
2022-11-11T00:47:19.359Z,101742.50
2022-11-11T00:50:58.234Z,101744.38
2022-11-11T00:54:18.596Z,101740.81
2022-11-11T00:57:38.510Z,101759.78
2022-11-11T01:00:58.721Z,101759.91
2022-11-11T01:04:18.569Z,101750.91
2022-11-11T01:07:38.611Z,101753.63
2022-11-11T01:10:59.411Z,101762.63
2022-11-11T01:14:19.467Z,101760.91
2022-11-11T01:17:39.509Z,101758.19
2022-11-11T01:21:06.068Z,101758.06
2022-11-11T01:24:26.496Z,101766.34
2022-11-11T01:27:46.623Z,101775.44
2022-11-11T01:31:12.990Z,101762.75
2022-11-11T01:34:33.269Z,101771.03
2022-11-11T01:37:53.212Z,101774.59
2022-11-11T01:41:34.527Z,101778.16
2022-11-11T01:44:54.688Z,101779.16
2022-11-11T01:48:57.657Z,101782.72
2022-11-11T01:52:38.407Z,101763.81
2022-11-11T01:56:02.337Z,101766.53
2022-11-11T01:59:22.744Z,101763.97
2022-11-11T02:02:45.700Z,101762.09
2022-11-11T02:06:08.103Z,101760.41
2022-11-11T02:09:29.589Z,101757.81
2022-11-11T02:13:08.389Z,101757.06
2022-11-11T02:16:28.963Z,101760.50
2022-11-11T02:19:53.878Z,101760.50
2022-11-11T02:23:22.708Z,101760.50
2022-11-11T02:26:44.767Z,101762.22
2022-11-11T02:30:07.189Z,101768.66
2022-11-11T02:33:27.528Z,101765.09
2022-11-11T02:36:47.705Z,101757.06
2022-11-11T02:40:09.585Z,101758.91
2022-11-11T02:43:31.021Z,101767.91
2022-11-11T02:46:51.531Z,101776.19
2022-11-11T02:50:12.343Z,101787.91
2022-11-11T02:53:32.921Z,101784.34
2022-11-11T02:57:08.346Z,101788.88
2022-11-11T03:00:28.681Z,101792.59
2022-11-11T03:03:48.599Z,101789.88
2022-11-11T03:07:08.722Z,101776.31
2022-11-11T03:10:29.939Z,101781.72
2022-11-11T03:13:50.125Z,101780.03
2022-11-11T03:17:29.757Z,101779.03
2022-11-11T03:21:38.161Z,101776.41
2022-11-11T03:25:03.401Z,101768.28
2022-11-11T03:28:26.380Z,101764.72
2022-11-11T03:31:46.292Z,101753.88
2022-11-11T03:35:06.330Z,101768.44
2022-11-11T03:38:26.511Z,101759.44
2022-11-11T03:41:46.698Z,101749.44
2022-11-11T03:45:07.220Z,101741.31
2022-11-11T03:48:29.657Z,101735.13
2022-11-11T03:51:49.660Z,101734.28
2022-11-11T03:55:10.087Z,101730.72
2022-11-11T03:58:30.133Z,101720.81
2022-11-11T04:02:09.337Z,101727.09
2022-11-11T04:05:48.089Z,101722.69
2022-11-11T04:09:27.058Z,101721.84
2022-11-11T04:13:06.017Z,101722.69
2022-11-11T04:16:26.620Z,101735.41
2022-11-11T04:20:05.290Z,101729.97
2022-11-11T04:23:25.955Z,101749.81
2022-11-11T04:26:46.240Z,101747.09
2022-11-11T04:30:07.023Z,101747.97
2022-11-11T04:33:27.136Z,101743.38
2022-11-11T04:36:47.110Z,101752.53
2022-11-11T04:40:28.011Z,101747.97
2022-11-11T04:44:06.970Z,101754.50
2022-11-11T04:47:27.087Z,101764.38
2022-11-11T04:50:47.135Z,101759.91
2022-11-11T04:54:07.358Z,101759.06
2022-11-11T04:57:27.246Z,101762.78
2022-11-11T05:00:47.193Z,101754.63
2022-11-11T05:04:07.063Z,101750.19
2022-11-11T05:07:47.411Z,101754.63
2022-11-11T05:11:07.866Z,101760.19
2022-11-11T05:14:46.663Z,101758.47
2022-11-11T05:18:25.348Z,101758.56
2022-11-11T05:21:45.603Z,101765.84
2022-11-11T05:25:25.487Z,101765.00
2022-11-11T05:28:46.800Z,101777.69
2022-11-11T05:32:08.336Z,101781.28
2022-11-11T05:35:28.311Z,101785.09
2022-11-11T05:38:48.172Z,101783.25
2022-11-11T05:42:08.618Z,101789.63
2022-11-11T05:45:28.812Z,101800.47
2022-11-11T05:49:07.231Z,101793.34
2022-11-11T05:52:27.468Z,101796.06
2022-11-11T05:55:47.413Z,101793.34
2022-11-11T05:59:07.888Z,101795.22
2022-11-11T06:02:28.103Z,101802.47
2022-11-11T06:05:48.281Z,101799.78
2022-11-11T06:09:08.453Z,101802.47
2022-11-11T06:12:48.770Z,101805.19
2022-11-11T06:16:09.510Z,101809.63
2022-11-11T06:19:29.466Z,101805.91
2022-11-11T06:22:58.324Z,101813.94
2022-11-11T06:26:18.356Z,101812.81
2022-11-11T06:29:38.683Z,101810.13
2022-11-11T06:32:58.429Z,101814.44
2022-11-11T06:36:20.767Z,101813.91
2022-11-11T06:39:40.787Z,101830.56
2022-11-11T06:43:01.021Z,101832.06
2022-11-11T06:46:23.992Z,101826.47
2022-11-11T06:49:44.224Z,101829.34
2022-11-11T06:53:09.415Z,101821.19
2022-11-11T06:56:29.558Z,101811.47
2022-11-11T06:59:49.526Z,101816.00
2022-11-11T07:03:12.477Z,101817.75
2022-11-11T07:06:32.544Z,101818.84
2022-11-11T07:09:52.555Z,101827.97
2022-11-11T07:13:13.980Z,101827.97
2022-11-11T07:16:34.027Z,101830.69
2022-11-11T07:19:54.013Z,101829.97
2022-11-11T07:23:13.763Z,101828.09
2022-11-11T07:26:33.917Z,101830.94
2022-11-11T07:29:54.046Z,101831.09
2022-11-11T07:33:14.292Z,101830.19
2022-11-11T07:36:34.453Z,101840.19
2022-11-11T07:39:54.817Z,101853.88
2022-11-11T07:43:14.757Z,101859.44
2022-11-11T07:46:34.816Z,101874.00
2022-11-11T07:49:54.877Z,101869.53
2022-11-11T07:53:15.173Z,101862.25
2022-11-11T07:56:35.867Z,101851.53
2022-11-11T07:59:55.710Z,101849.69
2022-11-11T08:03:15.860Z,101856.97
2022-11-11T08:06:36.389Z,101857.81
2022-11-11T08:09:56.626Z,101853.41
2022-11-11T08:13:35.113Z,101847.97
2022-11-11T08:16:55.300Z,101847.09
2022-11-11T08:20:15.283Z,101843.53
2022-11-11T08:24:10.620Z,101856.13
2022-11-11T08:27:15.432Z,101848.94
2022-11-11T08:30:35.576Z,101851.66
2022-11-11T08:33:55.971Z,101858.94
2022-11-11T08:37:16.585Z,101861.66
2022-11-11T08:40:36.811Z,101863.38
2022-11-11T08:43:56.979Z,101857.09
2022-11-11T08:47:17.663Z,101855.22
2022-11-11T08:50:41.303Z,101857.09
2022-11-11T08:54:01.259Z,101858.06
2022-11-11T08:57:21.591Z,101853.63
2022-11-11T09:00:42.432Z,101844.53
2022-11-11T09:04:22.989Z,101843.66
2022-11-11T09:07:43.044Z,101837.34
2022-11-11T09:11:02.961Z,101840.94
2022-11-11T09:14:23.303Z,101845.47
2022-11-11T09:17:47.469Z,101857.94
2022-11-11T09:21:08.291Z,101879.78
2022-11-11T09:24:28.308Z,101898.75
2022-11-11T09:27:56.839Z,101908.50
2022-11-11T09:34:57.330Z,101932.06
2022-11-11T09:38:17.349Z,101932.91
2022-11-11T09:42:06.435Z,101929.22
2022-11-11T09:45:59.697Z,101926.50
2022-11-11T09:49:44.890Z,101935.50
2022-11-11T09:53:11.393Z,101938.19
2022-11-11T09:56:32.789Z,101940.19
2022-11-11T09:59:56.475Z,101948.19
2022-11-11T10:03:22.795Z,101941.91
2022-11-11T10:06:45.101Z,101934.78
2022-11-11T10:10:14.769Z,101938.19
2022-11-11T10:13:38.680Z,101935.50
2022-11-11T10:17:07.553Z,101939.31
2022-11-11T10:20:34.372Z,101946.47
2022-11-11T10:24:00.321Z,101959.19
2022-11-11T10:27:22.072Z,101957.44
2022-11-11T10:30:42.422Z,101961.91
2022-11-11T10:34:11.712Z,101955.47
2022-11-11T10:37:41.397Z,101969.91
2022-11-11T10:41:11.575Z,101959.03
2022-11-11T10:44:34.344Z,101957.44
2022-11-11T10:48:00.047Z,101956.19
2022-11-11T10:51:28.261Z,101962.00
2022-11-11T10:55:09.530Z,101966.78
2022-11-11T10:58:41.621Z,101963.56
2022-11-11T11:02:33.428Z,101971.06
2022-11-11T11:06:02.661Z,101972.19
2022-11-11T11:09:47.262Z,101972.19
2022-11-11T11:13:15.484Z,101978.81
2022-11-11T11:16:44.126Z,101966.34
2022-11-11T11:20:23.180Z,101957.47
2022-11-11T11:23:45.909Z,101951.19
2022-11-11T11:27:08.272Z,101955.00
2022-11-11T11:30:28.638Z,101947.97
2022-11-11T11:33:56.097Z,101939.84
2022-11-11T11:37:17.372Z,101940.09
2022-11-11T11:40:51.422Z,101933.66
2022-11-11T11:44:34.216Z,101922.09
2022-11-11T11:52:03.746Z,101932.19
2022-11-11T11:55:34.326Z,101931.44
2022-11-11T11:59:06.510Z,101936.00
2022-11-11T12:02:50.770Z,101932.44
2022-11-11T12:06:32.810Z,101934.41
2022-11-11T12:09:56.892Z,101944.47
2022-11-11T12:13:32.342Z,101942.53
2022-11-11T12:17:20.568Z,101950.66
2022-11-11T12:20:49.678Z,101944.38
2022-11-11T12:24:31.176Z,101949.91
2022-11-11T12:28:10.533Z,101946.94
2022-11-11T12:31:36.547Z,101947.81
2022-11-11T12:35:15.421Z,101941.44
2022-11-11T12:38:51.303Z,101947.59
2022-11-11T12:42:17.491Z,101939.47
2022-11-11T12:46:04.645Z,101943.78
2022-11-11T12:49:39.830Z,101948.22
2022-11-11T12:53:10.849Z,101952.78
2022-11-11T12:56:55.350Z,101956.25
2022-11-11T13:00:20.375Z,101950.69
2022-11-11T13:03:59.357Z,101956.97
2022-11-11T13:07:43.601Z,101956.00
2022-11-11T13:11:13.866Z,101954.25
2022-11-11T13:14:42.519Z,101961.28
2022-11-11T13:18:03.480Z,101968.56
2022-11-11T13:21:30.959Z,101961.19
2022-11-11T13:24:53.788Z,101967.47
2022-11-11T13:28:38.006Z,101969.19
2022-11-11T13:31:59.687Z,101967.34
2022-11-11T13:35:31.039Z,101964.50
2022-11-11T13:38:58.483Z,101971.78
2022-11-11T13:42:23.409Z,101974.50
2022-11-11T13:45:50.351Z,101970.91
2022-11-11T13:49:34.968Z,101975.34
2022-11-11T13:53:02.782Z,101970.91
2022-11-11T13:56:36.951Z,101975.34
2022-11-11T14:00:01.377Z,101974.50
2022-11-11T14:03:34.355Z,101982.50
2022-11-11T14:06:54.748Z,101973.63
2022-11-11T14:10:18.216Z,101969.06
2022-11-11T14:13:39.462Z,101973.63
2022-11-11T14:17:02.611Z,101980.78
2022-11-11T14:20:40.712Z,101978.06
2022-11-11T14:24:01.623Z,101980.78
2022-11-11T14:27:30.544Z,101975.47
2022-11-11T14:30:50.707Z,101980.91
2022-11-11T14:34:49.185Z,101981.75
2022-11-11T14:38:34.220Z,101979.91
2022-11-11T14:41:55.303Z,101980.91
2022-11-11T14:45:27.288Z,101979.06
2022-11-11T14:48:56.606Z,101978.19
2022-11-11T14:52:25.864Z,101977.34
2022-11-11T14:55:54.291Z,101974.63
2022-11-11T14:59:24.455Z,101974.72
2022-11-11T15:02:53.276Z,101973.72
2022-11-11T15:06:18.565Z,101981.00
2022-11-11T15:09:57.299Z,101971.03
2022-11-11T15:13:29.075Z,101973.72
2022-11-11T15:17:10.724Z,101973.72
2022-11-11T15:20:45.914Z,101973.72
2022-11-11T15:24:30.451Z,101966.50
2022-11-11T15:28:05.696Z,101964.63
2022-11-11T15:31:35.921Z,101954.91
2022-11-11T15:35:24.825Z,101962.91
2022-11-11T15:38:45.297Z,101965.75
2022-11-11T15:42:05.753Z,101968.44
2022-11-11T15:45:33.820Z,101971.03
2022-11-11T15:48:54.235Z,101967.59
2022-11-11T15:52:23.779Z,101973.63
2022-11-11T15:55:53.238Z,101962.78
2022-11-11T15:59:23.831Z,101982.38
2022-11-11T16:02:43.816Z,101986.09
2022-11-11T16:06:07.879Z,101987.59
2022-11-11T16:09:30.780Z,101984.75
2022-11-11T16:12:59.581Z,101989.91
2022-11-11T16:16:27.157Z,101984.41
2022-11-11T16:19:49.859Z,102004.13
2022-11-11T16:23:16.355Z,101998.47
2022-11-11T16:26:36.643Z,101993.91
2022-11-11T16:30:18.664Z,101997.34
2022-11-11T16:33:38.950Z,101991.06
2022-11-11T16:37:00.205Z,101986.41
2022-11-11T16:40:32.384Z,101988.13
2022-11-11T16:43:53.447Z,101992.69
2022-11-11T16:47:32.692Z,101993.44
2022-11-11T16:50:57.898Z,101993.44
2022-11-11T16:54:24.770Z,101991.44
2022-11-11T16:57:45.600Z,101990.72
2022-11-11T17:01:06.880Z,101999.59
2022-11-11T17:04:53.886Z,101996.75
2022-11-11T17:08:38.779Z,101994.91
2022-11-11T17:11:58.687Z,101995.03
2022-11-11T17:15:21.658Z,101993.06
2022-11-11T17:18:42.083Z,101991.34
2022-11-11T17:22:11.244Z,101992.94
2022-11-11T17:25:31.212Z,101993.19
2022-11-11T17:28:51.091Z,101998.63
2022-11-11T17:32:11.205Z,101993.28
2022-11-11T17:35:31.382Z,102002.28
2022-11-11T17:38:51.358Z,102012.28
2022-11-11T17:42:12.252Z,102002.44
2022-11-11T17:45:32.566Z,102003.28
2022-11-11T17:48:55.373Z,102004.03
2022-11-11T17:52:16.334Z,102010.31
2022-11-11T17:55:36.599Z,102011.19
2022-11-11T17:58:56.998Z,102004.78
2022-11-11T18:02:17.108Z,102002.94
2022-11-11T18:05:37.270Z,102002.94
2022-11-11T18:08:57.410Z,102005.50
2022-11-11T18:12:17.835Z,102009.22
2022-11-11T18:15:38.231Z,102003.69
2022-11-11T18:19:01.368Z,102006.41
2022-11-11T18:22:21.477Z,102008.22
2022-11-11T18:25:41.961Z,102002.78
2022-11-11T18:29:05.420Z,102001.84
2022-11-11T18:32:25.444Z,102013.78
2022-11-11T18:35:45.736Z,102014.66
2022-11-11T18:39:05.733Z,102013.78
2022-11-11T18:42:25.596Z,102020.19
2022-11-11T18:45:45.447Z,102031.78
2022-11-11T18:49:06.066Z,102029.06
2022-11-11T18:52:25.998Z,102022.69
2022-11-11T18:55:46.401Z,102024.38
2022-11-11T18:59:06.685Z,102028.72
2022-11-11T19:02:26.796Z,102032.19
2022-11-11T19:05:47.008Z,102033.66
2022-11-11T19:09:10.285Z,102029.81
2022-11-11T19:12:30.259Z,102040.56
2022-11-11T19:15:50.402Z,102037.75
2022-11-11T19:19:11.243Z,102043.03
2022-11-11T19:22:32.856Z,102048.38
2022-11-11T19:25:57.863Z,102047.38
2022-11-11T19:29:17.863Z,102051.94
2022-11-11T19:32:37.716Z,102055.50
2022-11-11T19:35:59.082Z,102058.22
2022-11-11T19:39:19.351Z,102054.53
2022-11-11T19:42:39.297Z,102058.97
2022-11-11T19:45:59.853Z,102057.13
2022-11-11T19:49:20.057Z,102058.88
2022-11-11T19:52:39.842Z,102070.44
2022-11-11T19:56:05.718Z,102065.69
2022-11-11T19:59:25.639Z,102063.84
2022-11-11T20:02:45.638Z,102069.00
2022-11-11T20:06:07.492Z,102066.06
2022-11-11T20:09:27.582Z,102066.94
2022-11-11T20:12:47.870Z,102062.13
2022-11-11T20:16:08.033Z,102069.06
2022-11-11T20:19:28.232Z,102071.63
2022-11-11T20:22:48.543Z,102067.94
2022-11-11T20:26:11.962Z,102073.97
2022-11-11T20:29:32.232Z,102082.13
2022-11-11T20:32:52.515Z,102077.56
2022-11-11T20:36:13.366Z,102073.75
2022-11-11T20:39:33.400Z,102079.31
2022-11-11T20:42:53.394Z,102088.16
2022-11-11T20:46:18.726Z,102089.78
2022-11-11T20:49:38.859Z,102089.66
2022-11-11T20:52:59.038Z,102086.09
2022-11-11T20:56:23.644Z,102086.09
2022-11-11T20:59:44.082Z,102092.28
2022-11-11T21:03:04.604Z,102094.00
2022-11-11T21:06:26.181Z,102097.44
2022-11-11T21:09:46.014Z,102096.34
2022-11-11T21:13:06.181Z,102095.25
2022-11-11T21:16:28.604Z,102089.66
2022-11-11T21:19:48.461Z,102096.84
2022-11-11T21:23:08.650Z,102093.13
2022-11-11T21:26:29.753Z,102089.44
2022-11-11T21:29:49.852Z,102095.75
2022-11-11T21:33:10.846Z,102094.63
2022-11-11T21:36:33.268Z,102091.91
2022-11-11T21:39:54.774Z,102087.34
2022-11-11T21:43:15.213Z,102088.19
2022-11-11T21:46:36.956Z,102101.66
2022-11-11T21:49:57.129Z,102103.53
2022-11-11T21:53:17.000Z,102103.53
2022-11-11T21:56:38.791Z,102094.38
2022-11-11T21:59:58.667Z,102097.19
2022-11-11T22:03:18.629Z,102107.09
2022-11-11T22:06:39.933Z,102098.94
2022-11-11T22:09:59.996Z,102106.97
2022-11-11T22:13:20.152Z,102091.56
2022-11-11T22:16:40.051Z,102107.84
2022-11-11T22:20:00.218Z,102107.84
2022-11-11T22:23:22.371Z,102113.38
2022-11-11T22:26:43.423Z,102116.00
2022-11-11T22:30:03.712Z,102113.28
2022-11-11T22:33:23.638Z,102109.66
2022-11-11T22:36:43.947Z,102110.41
2022-11-11T22:40:04.535Z,102102.16
2022-11-11T22:43:45.405Z,102097.69
2022-11-11T22:47:04.804Z,102101.41
2022-11-11T22:50:24.581Z,102106.84
2022-11-11T22:53:45.508Z,102100.56
2022-11-11T22:57:05.480Z,102107.97
2022-11-11T23:00:25.830Z,102111.53
2022-11-11T23:03:48.135Z,102120.69
2022-11-11T23:07:08.334Z,102119.94
2022-11-11T23:10:28.318Z,102116.34
2022-11-11T23:13:49.601Z,102112.63
2022-11-11T23:17:09.523Z,102115.50
2022-11-11T23:20:29.410Z,102110.91
2022-11-11T23:23:50.664Z,102111.03
2022-11-11T23:27:10.892Z,102112.88
2022-11-11T23:30:31.170Z,102111.16
2022-11-11T23:33:53.191Z,102113.88
2022-11-11T23:37:13.588Z,102124.84
2022-11-11T23:40:33.744Z,102122.16
2022-11-11T23:43:54.468Z,102119.44
2022-11-11T23:47:14.431Z,102127.69
2022-11-11T23:50:34.364Z,102126.81
2022-11-11T23:53:54.301Z,102127.69
2022-11-11T23:57:14.474Z,102132.25
